Terminal Aerodrome Forecast
Issued by NWS Spokane, WA

Home | Current Version | Previous Version | Text Only | Print | Product List | Glossary On
Versions: 1 2 3 4 5 6 7 8 9 10 11 12 13 14 15 16 17 18 19
000
FTUS46 KOTX 191139
TAFGEG
TAF
KGEG 191139Z 1912/2012 13007KT P6SM FEW180 SCT250
     FM192000 22015G23KT P6SM SCT070 OVC100
     FM192300 23018G26KT P6SM VCSH SCT050 BKN070 OVC090
     FM200400 23020G28KT P6SM BKN090
     FM200900 22016KT P6SM FEW090=

USA.gov is the U.S. government's official web portal to all federal, state and local government web resources and services.